메인 페이지
METAR-TAF:

METAR-TAF

공항 :

테드 스티븐스 앵커리지 국제공항

앵커리지, 알래스카, 미국

위도: 61-10-28N, 경도: 149-59-46W, 고도: 44m

현재 날씨관측

예보는 35분 전, 16:53시(UTC)에 발표되었습니다.
북북서7kt
온도 1°C
습도 64%
기압 1003 hPa
시정: 16.1km
고도 6000ft 상공 구름 조금
고도 8500ft 상공 구름 많음
고도 11000ft 상공 흐림

METAR: PANC 141653Z 34007KT 10SM FEW060 BKN085 OVC110 01/M05 A2962 RMK AO2 SLP033 T00061050

시각: 08:28 (17:28 UTC)

예보

예보는 1 시간 7분 전, 16:21시(UTC)에 발표되었습니다.
예보 대상 시간: 14일 16시부터 15일 18시까지 (UTC)
7kt
시정: 10km
고도 5000ft 상공 구름 보통
고도 7000ft 상공 구름 많음
시계 내 소나기
14일 1800시부터 (UTC)
남남동12kt, 순간 최대 풍속 20kt
시정: 10km
고도 4000ft 상공 구름 보통
고도 7000ft 상공 구름 많음
15일 0000시부터 (UTC)
여러 방향의 바람 4kt
시정: 10km
고도 7000ft 상공 구름 보통
고도 12000ft 상공 구름 많음

TAF: PANC 141621Z 1416/1518 36007KT P6SM VCSH SCT050 BKN070 FM141800 15012G20KT P6SM SCT040 BKN070 FM150000 VRB04KT P6SM SCT070 BKN120

4,000개 이상의 공항 관측 자료 및 예보 (METAR 및 TAF 보고).

지도상에서 검색 가능한 기상관측소가 노란 점과 빨간 점으로 표시되어 있습니다.

기상관측소 명을 보려면 표시 위로 마우스를 이동하세요.

날씨 관측과 예보를 보려면 클릭하세요.

지도 변경 : 확대하려면 엑스 표시가 있는 녹색 버튼, 축소하려면 빼기 표시가 있는 녹색 버튼, 다음 페이지의 지도를 보려면 녹색 화살표를 클릭하세요.


METAR-TAF: